sensor_id;sensor_type;location;lat;lon;timestamp;pressure;altitude;pressure_sealevel;temperature;humidity
72612;BME280;60655;52.182;4.474;2023-03-31T00:01:17;100279.97;;;12.55;77.99
72612;BME280;60655;52.182;4.474;2023-03-31T00:03:19;100273.69;;;12.61;78.39
72612;BME280;60655;52.182;4.474;2023-03-31T00:05:26;100269.81;;;12.52;77.79
72612;BME280;60655;52.182;4.474;2023-03-31T00:07:27;100244.69;;;12.48;78.51
72612;BME280;60655;52.182;4.474;2023-03-31T00:09:28;100237.41;;;12.43;78.71
72612;BME280;60655;52.182;4.474;2023-03-31T00:11:29;100241.38;;;12.58;78.38
72612;BME280;60655;52.182;4.474;2023-03-31T00:13:31;100233.78;;;12.49;78.60
72612;BME280;60655;52.182;4.474;2023-03-31T00:15:32;100226.44;;;12.57;78.06
72612;BME280;60655;52.182;4.474;2023-03-31T00:17:32;100228.38;;;12.61;78.16
72612;BME280;60655;52.182;4.474;2023-03-31T00:19:34;100228.47;;;12.49;78.41
72612;BME280;60655;52.182;4.474;2023-03-31T00:21:35;100225.91;;;12.38;78.30
72612;BME280;60655;52.182;4.474;2023-03-31T00:23:36;100224.28;;;12.37;78.80
72612;BME280;60655;52.182;4.474;2023-03-31T00:25:40;100226.47;;;12.40;78.70
72612;BME280;60655;52.182;4.474;2023-03-31T00:27:42;100220.56;;;12.21;78.60
72612;BME280;60655;52.182;4.474;2023-03-31T00:29:43;100199.16;;;12.16;79.28
72612;BME280;60655;52.182;4.474;2023-03-31T00:31:45;100215.72;;;12.35;79.04
72612;BME280;60655;52.182;4.474;2023-03-31T00:33:46;100222.25;;;12.27;80.21
72612;BME280;60655;52.182;4.474;2023-03-31T00:35:50;100219.91;;;12.14;81.80
72612;BME280;60655;52.182;4.474;2023-03-31T00:37:51;100203.69;;;11.99;83.37
72612;BME280;60655;52.182;4.474;2023-03-31T00:39:53;100201.53;;;12.12;83.63
72612;BME280;60655;52.182;4.474;2023-03-31T00:41:54;100189.31;;;12.00;83.96
72612;BME280;60655;52.182;4.474;2023-03-31T00:46:17;100182.22;;;12.22;83.54
72612;BME280;60655;52.182;4.474;2023-03-31T00:48:19;100175.16;;;12.11;83.62
72612;BME280;60655;52.182;4.474;2023-03-31T00:50:25;100165.84;;;12.13;84.04
72612;BME280;60655;52.182;4.474;2023-03-31T00:52:33;100150.38;;;12.10;84.05
72612;BME280;60655;52.182;4.474;2023-03-31T00:54:37;100157.56;;;12.10;84.10
72612;BME280;60655;52.182;4.474;2023-03-31T00:56:41;100150.69;;;12.14;84.44
72612;BME280;60655;52.182;4.474;2023-03-31T00:58:43;100147.59;;;12.22;84.35
72612;BME280;60655;52.182;4.474;2023-03-31T01:00:46;100141.25;;;12.23;84.39
72612;BME280;60655;52.182;4.474;2023-03-31T01:02:52;100136.06;;;12.16;84.05
72612;BME280;60655;52.182;4.474;2023-03-31T01:04:58;100135.75;;;12.13;84.35
72612;BME280;60655;52.182;4.474;2023-03-31T01:07:14;100137.19;;;12.21;84.06
72612;BME280;60655;52.182;4.474;2023-03-31T01:09:16;100128.25;;;12.27;84.05
72612;BME280;60655;52.182;4.474;2023-03-31T01:11:19;100126.16;;;12.29;83.81
72612;BME280;60655;52.182;4.474;2023-03-31T01:13:22;100114.59;;;12.40;83.14
72612;BME280;60655;52.182;4.474;2023-03-31T01:15:24;100113.72;;;12.34;83.48
72612;BME280;60655;52.182;4.474;2023-03-31T01:17:25;100110.50;;;12.15;84.34
72612;BME280;60655;52.182;4.474;2023-03-31T01:22:21;100103.47;;;12.26;84.56
72612;BME280;60655;52.182;4.474;2023-03-31T01:36:50;100063.56;;;12.09;86.49
72612;BME280;60655;52.182;4.474;2023-03-31T01:43:36;100044.28;;;11.86;88.23
72612;BME280;60655;52.182;4.474;2023-03-31T01:45:59;100031.31;;;11.89;88.04
72612;BME280;60655;52.182;4.474;2023-03-31T01:48:06;100030.63;;;11.77;88.65
72612;BME280;60655;52.182;4.474;2023-03-31T01:50:29;100034.28;;;11.76;89.10
72612;BME280;60655;52.182;4.474;2023-03-31T01:52:34;100029.94;;;11.87;88.59
72612;BME280;60655;52.182;4.474;2023-03-31T01:54:45;100014.31;;;11.73;89.05
72612;BME280;60655;52.182;4.474;2023-03-31T01:56:57;100016.34;;;11.83;89.28
72612;BME280;60655;52.182;4.474;2023-03-31T01:59:33;99994.38;;;11.76;88.74
72612;BME280;60655;52.182;4.474;2023-03-31T02:01:46;99997.91;;;11.98;88.45
72612;BME280;60655;52.182;4.474;2023-03-31T02:03:55;99996.91;;;11.82;88.41
72612;BME280;60655;52.182;4.474;2023-03-31T02:06:01;99989.91;;;11.76;88.83
72612;BME280;60655;52.182;4.474;2023-03-31T02:08:40;99988.75;;;11.72;89.44
72612;BME280;60655;52.182;4.474;2023-03-31T02:10:41;99983.34;;;11.67;89.51
72612;BME280;60655;52.182;4.474;2023-03-31T02:12:44;99973.03;;;11.71;89.20
72612;BME280;60655;52.182;4.474;2023-03-31T02:14:46;99968.25;;;11.73;89.04
72612;BME280;60655;52.182;4.474;2023-03-31T02:16:53;99957.53;;;11.68;89.56
72612;BME280;60655;52.182;4.474;2023-03-31T02:19:00;99937.88;;;11.69;88.63
72612;BME280;60655;52.182;4.474;2023-03-31T02:21:04;99942.94;;;11.70;89.13
72612;BME280;60655;52.182;4.474;2023-03-31T02:23:06;99942.13;;;11.87;88.40
72612;BME280;60655;52.182;4.474;2023-03-31T02:25:11;99930.63;;;11.81;88.05
72612;BME280;60655;52.182;4.474;2023-03-31T02:27:24;99925.31;;;11.81;88.42
72612;BME280;60655;52.182;4.474;2023-03-31T02:29:26;99916.78;;;12.01;87.83
72612;BME280;60655;52.182;4.474;2023-03-31T02:31:37;99913.00;;;11.97;87.68
72612;BME280;60655;52.182;4.474;2023-03-31T02:33:42;99908.47;;;11.97;87.33
72612;BME280;60655;52.182;4.474;2023-03-31T02:35:43;99891.94;;;11.95;87.58
72612;BME280;60655;52.182;4.474;2023-03-31T02:37:45;99888.09;;;11.86;87.84
72612;BME280;60655;52.182;4.474;2023-03-31T02:39:48;99885.69;;;12.06;87.32
72612;BME280;60655;52.182;4.474;2023-03-31T02:41:50;99883.63;;;11.92;88.31
72612;BME280;60655;52.182;4.474;2023-03-31T02:43:50;99880.06;;;12.03;88.09
72612;BME280;60655;52.182;4.474;2023-03-31T02:45:51;99875.53;;;12.03;87.10
72612;BME280;60655;52.182;4.474;2023-03-31T02:47:53;99861.13;;;11.99;87.50
72612;BME280;60655;52.182;4.474;2023-03-31T02:49:57;99857.97;;;12.02;87.53
72612;BME280;60655;52.182;4.474;2023-03-31T03:01:15;99821.00;;;12.06;86.84
72612;BME280;60655;52.182;4.474;2023-03-31T03:05:30;99816.97;;;12.03;87.28
72612;BME280;60655;52.182;4.474;2023-03-31T03:07:57;99810.91;;;11.86;87.72
72612;BME280;60655;52.182;4.474;2023-03-31T03:12:32;99796.13;;;11.73;88.04
72612;BME280;60655;52.182;4.474;2023-03-31T03:14:39;99800.41;;;11.74;88.12
72612;BME280;60655;52.182;4.474;2023-03-31T03:16:45;99793.31;;;11.80;88.33
72612;BME280;60655;52.182;4.474;2023-03-31T03:18:58;99786.84;;;11.76;88.11
72612;BME280;60655;52.182;4.474;2023-03-31T03:20:59;99785.34;;;11.85;88.38
72612;BME280;60655;52.182;4.474;2023-03-31T03:23:01;99778.72;;;11.88;87.17
72612;BME280;60655;52.182;4.474;2023-03-31T03:25:03;99780.56;;;11.82;88.00
72612;BME280;60655;52.182;4.474;2023-03-31T03:27:04;99774.53;;;11.92;88.19
72612;BME280;60655;52.182;4.474;2023-03-31T03:29:05;99770.56;;;11.94;87.26
72612;BME280;60655;52.182;4.474;2023-03-31T03:31:06;99744.66;;;11.63;88.34
72612;BME280;60655;52.182;4.474;2023-03-31T03:33:08;99754.66;;;11.56;88.93
72612;BME280;60655;52.182;4.474;2023-03-31T03:35:10;99759.25;;;11.60;89.10
72612;BME280;60655;52.182;4.474;2023-03-31T03:37:11;99749.22;;;11.67;89.20
72612;BME280;60655;52.182;4.474;2023-03-31T03:39:12;99732.13;;;11.36;89.33
72612;BME280;60655;52.182;4.474;2023-03-31T03:41:13;99737.72;;;11.62;89.43
72612;BME280;60655;52.182;4.474;2023-03-31T03:43:14;99731.41;;;11.68;89.03
72612;BME280;60655;52.182;4.474;2023-03-31T03:45:15;99721.72;;;11.78;88.33
72612;BME280;60655;52.182;4.474;2023-03-31T03:47:16;99699.38;;;11.58;87.70
72612;BME280;60655;52.182;4.474;2023-03-31T03:49:17;99709.19;;;11.52;88.09
72612;BME280;60655;52.182;4.474;2023-03-31T03:51:18;99700.16;;;11.53;88.03
72612;BME280;60655;52.182;4.474;2023-03-31T03:53:19;99696.47;;;11.59;87.66
72612;BME280;60655;52.182;4.474;2023-03-31T03:55:20;99687.75;;;11.64;87.98
72612;BME280;60655;52.182;4.474;2023-03-31T03:57:21;99676.94;;;11.75;87.62
72612;BME280;60655;52.182;4.474;2023-03-31T03:59:23;99674.25;;;11.70;87.18
72612;BME280;60655;52.182;4.474;2023-03-31T04:01:24;99667.19;;;11.81;87.41
72612;BME280;60655;52.182;4.474;2023-03-31T04:03:25;99649.50;;;11.70;87.02
72612;BME280;60655;52.182;4.474;2023-03-31T04:05:26;99645.44;;;11.35;87.70
72612;BME280;60655;52.182;4.474;2023-03-31T04:07:27;99641.25;;;11.18;88.36
72612;BME280;60655;52.182;4.474;2023-03-31T04:09:28;99611.03;;;11.24;88.69
72612;BME280;60655;52.182;4.474;2023-03-31T04:11:29;99622.84;;;11.38;88.84
72612;BME280;60655;52.182;4.474;2023-03-31T04:13:30;99613.81;;;11.12;89.45
72612;BME280;60655;52.182;4.474;2023-03-31T04:15:31;99611.81;;;11.24;89.06
72612;BME280;60655;52.182;4.474;2023-03-31T04:17:32;99614.69;;;11.44;88.76
72612;BME280;60655;52.182;4.474;2023-03-31T04:19:33;99587.19;;;11.07;89.17
72612;BME280;60655;52.182;4.474;2023-03-31T04:21:34;99600.72;;;11.32;89.44
72612;BME280;60655;52.182;4.474;2023-03-31T04:23:35;99599.72;;;11.38;88.31
72612;BME280;60655;52.182;4.474;2023-03-31T04:25:46;99617.53;;;11.38;88.40
72612;BME280;60655;52.182;4.474;2023-03-31T04:27:50;99607.75;;;11.43;88.85
72612;BME280;60655;52.182;4.474;2023-03-31T04:29:54;99594.22;;;11.45;88.88
72612;BME280;60655;52.182;4.474;2023-03-31T04:31:55;99581.88;;;11.34;89.23
72612;BME280;60655;52.182;4.474;2023-03-31T04:33:59;99580.00;;;11.34;89.71
72612;BME280;60655;52.182;4.474;2023-03-31T04:36:07;99581.47;;;11.47;89.18
72612;BME280;60655;52.182;4.474;2023-03-31T04:38:22;99578.00;;;11.46;88.65
72612;BME280;60655;52.182;4.474;2023-03-31T04:40:24;99575.91;;;11.48;88.87
72612;BME280;60655;52.182;4.474;2023-03-31T04:42:25;99572.28;;;11.33;89.49
72612;BME280;60655;52.182;4.474;2023-03-31T04:44:26;99560.69;;;11.44;89.35
72612;BME280;60655;52.182;4.474;2023-03-31T04:46:27;99554.63;;;11.48;89.75
72612;BME280;60655;52.182;4.474;2023-03-31T04:48:28;99546.97;;;11.57;89.64
72612;BME280;60655;52.182;4.474;2023-03-31T04:50:29;99553.69;;;11.65;89.21
72612;BME280;60655;52.182;4.474;2023-03-31T04:52:31;99547.44;;;11.49;88.96
72612;BME280;60655;52.182;4.474;2023-03-31T04:54:31;99536.25;;;11.47;89.77
72612;BME280;60655;52.182;4.474;2023-03-31T04:56:32;99529.00;;;11.37;90.50
72612;BME280;60655;52.182;4.474;2023-03-31T04:58:33;99528.81;;;11.17;90.85
72612;BME280;60655;52.182;4.474;2023-03-31T05:00:34;99526.94;;;11.44;90.53
72612;BME280;60655;52.182;4.474;2023-03-31T05:02:36;99516.13;;;11.24;91.04
72612;BME280;60655;52.182;4.474;2023-03-31T05:04:37;99520.09;;;11.22;91.53
72612;BME280;60655;52.182;4.474;2023-03-31T05:06:38;99515.34;;;11.29;91.25
72612;BME280;60655;52.182;4.474;2023-03-31T05:08:39;99513.50;;;11.29;90.82
72612;BME280;60655;52.182;4.474;2023-03-31T05:10:40;99518.84;;;11.34;90.76
72612;BME280;60655;52.182;4.474;2023-03-31T05:12:41;99506.91;;;11.37;91.06
72612;BME280;60655;52.182;4.474;2023-03-31T05:14:42;99506.25;;;11.52;90.52
72612;BME280;60655;52.182;4.474;2023-03-31T05:16:43;99509.47;;;11.59;89.92
72612;BME280;60655;52.182;4.474;2023-03-31T05:18:44;99500.09;;;11.46;90.04
72612;BME280;60655;52.182;4.474;2023-03-31T05:20:46;99496.63;;;11.45;90.63
72612;BME280;60655;52.182;4.474;2023-03-31T05:22:47;99484.47;;;11.55;90.14
72612;BME280;60655;52.182;4.474;2023-03-31T05:24:48;99484.38;;;11.12;90.74
72612;BME280;60655;52.182;4.474;2023-03-31T05:26:49;99483.84;;;11.10;91.51
72612;BME280;60655;52.182;4.474;2023-03-31T05:28:52;99484.53;;;11.33;90.71
72612;BME280;60655;52.182;4.474;2023-03-31T05:30:53;99483.78;;;11.37;90.39
72612;BME280;60655;52.182;4.474;2023-03-31T05:32:55;99490.13;;;11.31;90.28
72612;BME280;60655;52.182;4.474;2023-03-31T05:34:56;99489.88;;;11.33;90.32
72612;BME280;60655;52.182;4.474;2023-03-31T05:36:57;99484.34;;;11.39;90.59
72612;BME280;60655;52.182;4.474;2023-03-31T05:38:58;99484.38;;;11.44;89.87
72612;BME280;60655;52.182;4.474;2023-03-31T05:40:59;99482.81;;;11.48;90.06
72612;BME280;60655;52.182;4.474;2023-03-31T05:43:00;99488.34;;;11.42;90.10
72612;BME280;60655;52.182;4.474;2023-03-31T05:45:02;99468.34;;;11.34;89.81
72612;BME280;60655;52.182;4.474;2023-03-31T05:47:03;99476.09;;;11.41;90.03
72612;BME280;60655;52.182;4.474;2023-03-31T05:49:04;99477.25;;;11.50;89.95
72612;BME280;60655;52.182;4.474;2023-03-31T05:51:06;99473.28;;;11.58;89.65
72612;BME280;60655;52.182;4.474;2023-03-31T05:53:07;99468.38;;;11.39;89.39
72612;BME280;60655;52.182;4.474;2023-03-31T05:55:08;99469.94;;;11.35;89.58
72612;BME280;60655;52.182;4.474;2023-03-31T05:57:10;99466.78;;;11.38;89.37
72612;BME280;60655;52.182;4.474;2023-03-31T05:59:11;99466.91;;;11.54;89.04
72612;BME280;60655;52.182;4.474;2023-03-31T06:01:15;99456.72;;;11.45;88.96
72612;BME280;60655;52.182;4.474;2023-03-31T06:03:19;99453.78;;;11.42;89.19
72612;BME280;60655;52.182;4.474;2023-03-31T06:05:20;99459.78;;;11.27;90.53
72612;BME280;60655;52.182;4.474;2023-03-31T06:07:23;99446.47;;;11.27;89.67
72612;BME280;60655;52.182;4.474;2023-03-31T06:09:25;99444.44;;;11.39;89.36
72612;BME280;60655;52.182;4.474;2023-03-31T06:11:26;99452.50;;;11.49;88.45
72612;BME280;60655;52.182;4.474;2023-03-31T06:13:27;99443.31;;;11.30;89.28
72612;BME280;60655;52.182;4.474;2023-03-31T06:15:28;99441.84;;;11.12;90.41
72612;BME280;60655;52.182;4.474;2023-03-31T06:17:29;99448.88;;;11.24;90.43
72612;BME280;60655;52.182;4.474;2023-03-31T06:19:30;99441.84;;;11.44;89.65
72612;BME280;60655;52.182;4.474;2023-03-31T06:21:31;99440.75;;;11.40;89.42
72612;BME280;60655;52.182;4.474;2023-03-31T06:23:33;99430.28;;;11.29;89.92
72612;BME280;60655;52.182;4.474;2023-03-31T06:25:36;99424.50;;;11.37;89.64
72612;BME280;60655;52.182;4.474;2023-03-31T06:27:38;99436.06;;;11.58;88.78
72612;BME280;60655;52.182;4.474;2023-03-31T06:29:40;99425.41;;;11.53;88.09
72612;BME280;60655;52.182;4.474;2023-03-31T06:31:41;99428.56;;;11.49;88.59
72612;BME280;60655;52.182;4.474;2023-03-31T06:33:42;99430.41;;;11.44;88.79
72612;BME280;60655;52.182;4.474;2023-03-31T06:35:43;99420.28;;;11.41;89.17
72612;BME280;60655;52.182;4.474;2023-03-31T06:37:44;99429.34;;;11.45;89.15
72612;BME280;60655;52.182;4.474;2023-03-31T06:39:46;99417.53;;;11.26;90.08
72612;BME280;60655;52.182;4.474;2023-03-31T06:41:48;99406.09;;;11.25;90.24
72612;BME280;60655;52.182;4.474;2023-03-31T06:43:49;99413.97;;;11.15;91.04
72612;BME280;60655;52.182;4.474;2023-03-31T06:45:54;99396.03;;;10.95;91.96
72612;BME280;60655;52.182;4.474;2023-03-31T06:47:55;99421.78;;;11.32;90.87
72612;BME280;60655;52.182;4.474;2023-03-31T06:49:56;99401.31;;;11.32;90.59
72612;BME280;60655;52.182;4.474;2023-03-31T06:51:57;99408.56;;;11.42;90.55
72612;BME280;60655;52.182;4.474;2023-03-31T06:53:58;99405.06;;;11.36;90.52
72612;BME280;60655;52.182;4.474;2023-03-31T06:55:59;99392.84;;;11.35;90.41
72612;BME280;60655;52.182;4.474;2023-03-31T06:58:01;99392.53;;;11.32;89.88
72612;BME280;60655;52.182;4.474;2023-03-31T07:00:03;99397.69;;;11.43;90.30
72612;BME280;60655;52.182;4.474;2023-03-31T07:02:05;99401.19;;;11.49;90.16
72612;BME280;60655;52.182;4.474;2023-03-31T07:04:06;99392.81;;;11.30;90.72
72612;BME280;60655;52.182;4.474;2023-03-31T07:06:07;99394.81;;;11.50;90.62
72612;BME280;60655;52.182;4.474;2023-03-31T07:08:10;99385.78;;;11.51;89.90
72612;BME280;60655;52.182;4.474;2023-03-31T07:10:11;99385.25;;;11.54;90.00
72612;BME280;60655;52.182;4.474;2023-03-31T07:12:12;99388.66;;;11.44;90.18
72612;BME280;60655;52.182;4.474;2023-03-31T07:14:13;99387.84;;;11.44;90.08
72612;BME280;60655;52.182;4.474;2023-03-31T07:16:14;99382.81;;;11.47;90.16
72612;BME280;60655;52.182;4.474;2023-03-31T07:18:16;99384.97;;;11.50;89.98
72612;BME280;60655;52.182;4.474;2023-03-31T07:20:19;99370.50;;;11.36;90.31
72612;BME280;60655;52.182;4.474;2023-03-31T07:22:20;99372.66;;;11.39;90.08
72612;BME280;60655;52.182;4.474;2023-03-31T07:24:22;99375.47;;;11.65;90.15
72612;BME280;60655;52.182;4.474;2023-03-31T07:26:23;99355.22;;;11.54;89.83
72612;BME280;60655;52.182;4.474;2023-03-31T07:28:24;99369.63;;;11.68;89.79
72612;BME280;60655;52.182;4.474;2023-03-31T07:30:25;99365.34;;;11.62;90.00
72612;BME280;60655;52.182;4.474;2023-03-31T07:32:26;99364.88;;;11.75;89.53
72612;BME280;60655;52.182;4.474;2023-03-31T07:34:27;99366.09;;;11.57;90.80
72612;BME280;60655;52.182;4.474;2023-03-31T07:36:29;99358.19;;;11.67;90.28
72612;BME280;60655;52.182;4.474;2023-03-31T07:38:30;99359.72;;;11.58;90.66
72612;BME280;60655;52.182;4.474;2023-03-31T07:40:31;99365.09;;;11.68;90.60
72612;BME280;60655;52.182;4.474;2023-03-31T07:42:33;99362.78;;;11.77;89.74
72612;BME280;60655;52.182;4.474;2023-03-31T07:44:35;99369.13;;;11.71;89.46
72612;BME280;60655;52.182;4.474;2023-03-31T07:46:37;99360.59;;;11.69;89.54
72612;BME280;60655;52.182;4.474;2023-03-31T07:48:39;99353.13;;;11.66;90.10
72612;BME280;60655;52.182;4.474;2023-03-31T07:50:40;99338.66;;;11.41;90.59
72612;BME280;60655;52.182;4.474;2023-03-31T07:52:41;99341.63;;;11.55;90.50
72612;BME280;60655;52.182;4.474;2023-03-31T07:54:42;99357.59;;;11.60;90.67
72612;BME280;60655;52.182;4.474;2023-03-31T07:56:43;99351.50;;;11.60;91.12
72612;BME280;60655;52.182;4.474;2023-03-31T07:58:45;99348.63;;;11.71;90.12
72612;BME280;60655;52.182;4.474;2023-03-31T08:00:46;99348.44;;;11.78;89.66
72612;BME280;60655;52.182;4.474;2023-03-31T08:02:47;99341.19;;;11.73;89.43
72612;BME280;60655;52.182;4.474;2023-03-31T08:04:48;99347.66;;;11.88;89.41
72612;BME280;60655;52.182;4.474;2023-03-31T08:06:49;99337.28;;;11.91;89.36
72612;BME280;60655;52.182;4.474;2023-03-31T08:08:51;99345.31;;;12.01;88.47
72612;BME280;60655;52.182;4.474;2023-03-31T08:10:52;99330.94;;;11.97;88.45
72612;BME280;60655;52.182;4.474;2023-03-31T08:12:53;99328.75;;;11.89;88.09
72612;BME280;60655;52.182;4.474;2023-03-31T08:14:54;99323.97;;;11.91;88.72
72612;BME280;60655;52.182;4.474;2023-03-31T08:16:55;99328.81;;;12.14;88.37
72612;BME280;60655;52.182;4.474;2023-03-31T08:18:57;99312.56;;;12.01;87.97
72612;BME280;60655;52.182;4.474;2023-03-31T08:20:58;99318.97;;;12.15;87.75
72612;BME280;60655;52.182;4.474;2023-03-31T08:22:59;99309.69;;;12.12;87.37
72612;BME280;60655;52.182;4.474;2023-03-31T08:25:00;99315.00;;;12.17;87.27
72612;BME280;60655;52.182;4.474;2023-03-31T08:27:01;99310.50;;;12.28;86.96
72612;BME280;60655;52.182;4.474;2023-03-31T08:29:02;99309.44;;;12.29;86.88
72612;BME280;60655;52.182;4.474;2023-03-31T08:31:07;99310.25;;;12.35;86.68
72612;BME280;60655;52.182;4.474;2023-03-31T08:33:08;99307.56;;;12.30;86.54
72612;BME280;60655;52.182;4.474;2023-03-31T08:35:09;99307.31;;;12.31;86.41
72612;BME280;60655;52.182;4.474;2023-03-31T08:37:10;99307.56;;;12.30;86.33
72612;BME280;60655;52.182;4.474;2023-03-31T08:39:11;99313.16;;;12.43;85.65
72612;BME280;60655;52.182;4.474;2023-03-31T08:43:43;99301.69;;;12.23;87.09
72612;BME280;60655;52.182;4.474;2023-03-31T08:45:46;99291.56;;;12.20;87.08
72612;BME280;60655;52.182;4.474;2023-03-31T08:47:54;99284.41;;;12.25;87.47
72612;BME280;60655;52.182;4.474;2023-03-31T08:50:15;99278.25;;;12.09;87.20
72612;BME280;60655;52.182;4.474;2023-03-31T08:52:25;99284.88;;;11.97;89.33
72612;BME280;60655;52.182;4.474;2023-03-31T08:54:39;99286.25;;;12.20;89.18
72612;BME280;60655;52.182;4.474;2023-03-31T08:56:43;99277.72;;;12.02;89.70
72612;BME280;60655;52.182;4.474;2023-03-31T08:58:48;99258.56;;;12.05;89.39
72612;BME280;60655;52.182;4.474;2023-03-31T09:06:13;99259.63;;;12.04;89.08
72612;BME280;60655;52.182;4.474;2023-03-31T09:15:07;99253.53;;;12.29;87.96
72612;BME280;60655;52.182;4.474;2023-03-31T09:17:25;99254.31;;;12.20;86.98
72612;BME280;60655;52.182;4.474;2023-03-31T09:19:59;99250.34;;;12.37;87.34
72612;BME280;60655;52.182;4.474;2023-03-31T09:22:13;99245.25;;;12.15;87.12
72612;BME280;60655;52.182;4.474;2023-03-31T09:24:27;99251.94;;;12.38;86.85
72612;BME280;60655;52.182;4.474;2023-03-31T09:26:40;99249.78;;;12.56;86.01
72612;BME280;60655;52.182;4.474;2023-03-31T09:28:44;99248.72;;;12.62;86.42
72612;BME280;60655;52.182;4.474;2023-03-31T09:30:47;99239.94;;;12.41;84.67
72612;BME280;60655;52.182;4.474;2023-03-31T09:33:13;99234.63;;;12.41;84.75
72612;BME280;60655;52.182;4.474;2023-03-31T09:35:20;99247.41;;;12.34;85.70
72612;BME280;60655;52.182;4.474;2023-03-31T09:37:27;99234.34;;;12.17;86.00
72612;BME280;60655;52.182;4.474;2023-03-31T09:39:29;99244.72;;;12.29;86.54
72612;BME280;60655;52.182;4.474;2023-03-31T09:41:30;99230.34;;;12.14;86.98
72612;BME280;60655;52.182;4.474;2023-03-31T09:43:32;99248.19;;;12.09;88.11
72612;BME280;60655;52.182;4.474;2023-03-31T09:45:35;99246.84;;;12.16;87.76
72612;BME280;60655;52.182;4.474;2023-03-31T09:47:45;99242.88;;;12.09;88.51
72612;BME280;60655;52.182;4.474;2023-03-31T09:49:46;99249.50;;;12.01;88.98
72612;BME280;60655;52.182;4.474;2023-03-31T09:52:39;99232.47;;;11.97;89.61
72612;BME280;60655;52.182;4.474;2023-03-31T09:54:35;99229.53;;;11.99;88.77
72612;BME280;60655;52.182;4.474;2023-03-31T09:58:44;99228.72;;;11.93;89.94
72612;BME280;60655;52.182;4.474;2023-03-31T10:01:02;99217.56;;;12.06;89.45
72612;BME280;60655;52.182;4.474;2023-03-31T10:03:04;99223.72;;;12.12;89.18
72612;BME280;60655;52.182;4.474;2023-03-31T10:05:22;99228.22;;;12.06;89.04
72612;BME280;60655;52.182;4.474;2023-03-31T10:07:25;99212.25;;;12.06;89.55
72612;BME280;60655;52.182;4.474;2023-03-31T10:09:30;99214.63;;;12.18;89.25
72612;BME280;60655;52.182;4.474;2023-03-31T10:11:32;99225.03;;;12.25;89.44
72612;BME280;60655;52.182;4.474;2023-03-31T10:16:03;99211.97;;;11.98;89.85
72612;BME280;60655;52.182;4.474;2023-03-31T10:18:15;99196.50;;;11.84;89.50
72612;BME280;60655;52.182;4.474;2023-03-31T10:22:30;99188.03;;;12.03;88.27
72612;BME280;60655;52.182;4.474;2023-03-31T10:24:37;99206.41;;;12.09;88.47
72612;BME280;60655;52.182;4.474;2023-03-31T10:26:39;99206.38;;;11.99;88.74
72612;BME280;60655;52.182;4.474;2023-03-31T10:28:40;99193.06;;;11.94;87.58
72612;BME280;60655;52.182;4.474;2023-03-31T10:30:46;99192.00;;;12.00;88.13
72612;BME280;60655;52.182;4.474;2023-03-31T10:32:49;99185.09;;;11.99;88.42
72612;BME280;60655;52.182;4.474;2023-03-31T10:34:51;99200.53;;;12.02;88.76
72612;BME280;60655;52.182;4.474;2023-03-31T10:36:52;99192.53;;;11.97;89.08
72612;BME280;60655;52.182;4.474;2023-03-31T10:38:54;99192.25;;;11.94;86.54
72612;BME280;60655;52.182;4.474;2023-03-31T10:40:56;99194.94;;;11.94;87.07
72612;BME280;60655;52.182;4.474;2023-03-31T10:43:02;99190.69;;;11.98;87.35
72612;BME280;60655;52.182;4.474;2023-03-31T10:45:24;99198.41;;;12.20;87.95
72612;BME280;60655;52.182;4.474;2023-03-31T10:47:32;99196.00;;;12.18;87.45
72612;BME280;60655;52.182;4.474;2023-03-31T10:49:37;99190.94;;;12.27;87.41
72612;BME280;60655;52.182;4.474;2023-03-31T10:51:48;99203.72;;;12.25;87.01
72612;BME280;60655;52.182;4.474;2023-03-31T10:53:51;99195.22;;;12.33;86.69
72612;BME280;60655;52.182;4.474;2023-03-31T11:01:37;99185.09;;;12.30;86.28
72612;BME280;60655;52.182;4.474;2023-03-31T11:03:44;99180.84;;;12.34;86.83
72612;BME280;60655;52.182;4.474;2023-03-31T11:05:56;99185.63;;;12.32;86.90
72612;BME280;60655;52.182;4.474;2023-03-31T11:08:24;99185.34;;;12.33;87.11
72612;BME280;60655;52.182;4.474;2023-03-31T11:13:13;99180.28;;;12.27;88.03
72612;BME280;60655;52.182;4.474;2023-03-31T11:21:00;99162.19;;;12.18;87.90
72612;BME280;60655;52.182;4.474;2023-03-31T11:25:25;99169.66;;;12.27;87.32
72612;BME280;60655;52.182;4.474;2023-03-31T11:27:40;99160.06;;;12.31;87.08
72612;BME280;60655;52.182;4.474;2023-03-31T11:29:58;99150.25;;;12.11;87.62
72612;BME280;60655;52.182;4.474;2023-03-31T11:32:39;99156.09;;;12.08;87.26
72612;BME280;60655;52.182;4.474;2023-03-31T11:41:34;99129.19;;;11.89;87.37
72612;BME280;60655;52.182;4.474;2023-03-31T11:43:49;99152.09;;;11.90;87.51
72612;BME280;60655;52.182;4.474;2023-03-31T11:46:24;99152.34;;;11.78;87.46
72612;BME280;60655;52.182;4.474;2023-03-31T11:50:37;99144.38;;;11.78;88.31
72612;BME280;60655;52.182;4.474;2023-03-31T11:52:47;99147.81;;;11.94;88.78
72612;BME280;60655;52.182;4.474;2023-03-31T11:54:59;99147.03;;;11.99;88.17
72612;BME280;60655;52.182;4.474;2023-03-31T11:57:17;99146.50;;;12.12;88.00
72612;BME280;60655;52.182;4.474;2023-03-31T11:59:21;99147.28;;;11.92;89.14
72612;BME280;60655;52.182;4.474;2023-03-31T12:01:38;99151.81;;;11.97;89.00
72612;BME280;60655;52.182;4.474;2023-03-31T12:04:04;99148.63;;;12.00;88.46
72612;BME280;60655;52.182;4.474;2023-03-31T12:06:16;99135.31;;;11.90;88.40
72612;BME280;60655;52.182;4.474;2023-03-31T12:10:34;99134.53;;;11.94;88.92
72612;BME280;60655;52.182;4.474;2023-03-31T12:12:42;99125.19;;;11.71;88.36
72612;BME280;60655;52.182;4.474;2023-03-31T12:14:50;99137.94;;;11.74;88.86
72612;BME280;60655;52.182;4.474;2023-03-31T12:16:58;99120.69;;;11.92;88.42
72612;BME280;60655;52.182;4.474;2023-03-31T12:19:23;99122.78;;;12.15;87.82
72612;BME280;60655;52.182;4.474;2023-03-31T12:21:28;99128.94;;;12.06;87.89
72612;BME280;60655;52.182;4.474;2023-03-31T12:23:34;99124.94;;;12.03;88.32